Terminal Aerodrome Forecast
Issued by NWS

Home | Current Version | Previous Version | Graphics & Text | Print | Product List | Glossary On
Versions: 1 2 3 4 5 6 7 8 9 10 11 12 13 14 15 16 17 18
740
FTUS43 KABR 242300 AAA
TAFATY
TAF AMD
KATY 242300Z 2423/2518 21013G24KT P6SM VCTS BKN060CB OVC200
     FM250100 20013KT P6SM FEW060
     FM250300 21008KT P6SM FEW050 SCT250=

USA.gov is the U.S. government's official web portal to all federal, state and local government web resources and services.